Time;durP1;ratioP1;P1;durP2;ratioP2;P2;SDS_P1;SDS_P2;PMS_P1;PMS_P2;Temp;Humidity;BMP_temperature;BMP_pressure;BME280_temperature;BME280_humidity;BME280_pressure;Samples;Min_cycle;Max_cycle;Signal;HPM_P1;HPM_P2
2022/04/11 00:00:48;;;;;;;8.23;4.00;;;1.70;99.90;;;;;;4931160;29;20573;-43
2022/04/11 00:03:14;;;;;;;5.43;3.85;;;1.70;99.90;;;;;;4964448;28;20058;-45
2022/04/11 00:05:39;;;;;;;6.38;4.05;;;1.70;99.90;;;;;;4971512;28;20149;-44
2022/04/11 00:08:06;;;;;;;7.93;4.15;;;1.60;99.90;;;;;;4969530;28;20504;-44
2022/04/11 00:10:32;;;;;;;6.38;4.30;;;1.60;99.90;;;;;;4967474;28;20145;-43
2022/04/11 00:13:02;;;;;;;7.20;5.05;;;1.60;99.90;;;;;;4967330;28;20058;-44
2022/04/11 00:15:28;;;;;;;8.13;4.82;;;1.60;99.90;;;;;;4962408;28;20058;-45
2022/04/11 00:17:53;;;;;;;7.97;5.63;;;1.60;99.90;;;;;;4965471;28;20051;-45
2022/04/11 00:20:19;;;;;;;8.90;5.25;;;1.70;99.90;;;;;;4980751;28;20048;-45
2022/04/11 00:22:45;;;;;;;13.15;5.97;;;1.60;99.90;;;;;;4949738;28;20466;-45
2022/04/11 00:25:11;;;;;;;11.82;5.47;;;1.60;99.90;;;;;;4953230;28;20723;-44
2022/04/11 00:27:36;;;;;;;11.90;6.28;;;1.60;99.90;;;;;;4972152;28;20047;-45
2022/04/11 00:30:03;;;;;;;9.65;4.75;;;1.70;99.90;;;;;;4977044;28;20184;-43
2022/04/11 00:32:28;;;;;;;9.43;5.35;;;1.70;99.90;;;;;;4975665;28;20051;-44
2022/04/11 00:34:54;;;;;;;9.05;5.32;;;1.70;99.90;;;;;;4971407;28;20412;-44
2022/04/11 00:37:20;;;;;;;6.07;4.13;;;1.80;99.90;;;;;;4974908;28;20058;-44
2022/04/11 00:39:46;;;;;;;7.50;4.30;;;1.80;99.90;;;;;;4975299;28;20047;-45
2022/04/11 00:42:15;;;;;;;6.97;4.25;;;1.70;99.90;;;;;;4956014;28;20492;-44
2022/04/11 00:44:41;;;;;;;6.90;4.15;;;1.80;99.90;;;;;;4947024;28;20051;-43
2022/04/11 00:47:07;;;;;;;6.13;3.80;;;1.70;99.90;;;;;;4956381;28;20517;-44
2022/04/11 00:49:33;;;;;;;8.02;4.03;;;1.80;99.90;;;;;;4962127;28;20055;-44
2022/04/11 00:51:59;;;;;;;8.93;4.15;;;1.70;99.90;;;;;;4968225;28;20498;-44
2022/04/11 00:54:27;;;;;;;6.15;4.00;;;1.70;99.90;;;;;;4967348;28;20047;-45
2022/04/11 00:56:59;;;;;;;8.70;4.07;;;1.70;99.90;;;;;;4973604;28;20042;-43
2022/04/11 00:59:25;;;;;;;7.28;3.88;;;1.70;99.90;;;;;;4953235;28;20050;-44
2022/04/11 01:01:51;;;;;;;6.88;4.03;;;1.70;99.90;;;;;;4969173;28;20046;-42
2022/04/11 01:04:23;;;;;;;6.18;3.67;;;1.70;99.90;;;;;;4963161;28;20159;-43
2022/04/11 01:06:50;;;;;;;7.15;4.32;;;1.70;99.90;;;;;;4971037;28;20050;-44
2022/04/11 01:09:16;;;;;;;6.03;3.67;;;1.70;99.90;;;;;;4946483;28;20058;-43
2022/04/11 01:11:43;;;;;;;7.47;4.68;;;1.60;99.90;;;;;;4970019;28;20078;-44
2022/04/11 01:14:09;;;;;;;6.05;3.28;;;1.60;99.90;;;;;;4949516;28;20056;-50
2022/04/11 01:16:34;;;;;;;5.75;3.75;;;1.70;99.90;;;;;;4946670;28;20046;-43
2022/04/11 01:19:00;;;;;;;7.90;4.03;;;1.60;99.90;;;;;;4972286;28;20076;-44
2022/04/11 01:21:28;;;;;;;5.32;3.72;;;1.60;99.90;;;;;;4974168;28;21635;-43
2022/04/11 01:23:57;;;;;;;6.50;4.00;;;1.60;99.90;;;;;;4945599;28;20090;-44
2022/04/11 01:26:24;;;;;;;6.53;4.22;;;1.50;99.90;;;;;;4966266;28;20081;-45
2022/04/11 01:28:51;;;;;;;6.43;4.40;;;1.50;99.90;;;;;;4971485;28;20057;-44
2022/04/11 01:31:16;;;;;;;6.38;3.70;;;1.60;99.90;;;;;;4947675;28;20363;-44
2022/04/11 01:33:42;;;;;;;7.78;4.20;;;1.50;99.90;;;;;;4959287;28;20089;-45
2022/04/11 01:36:08;;;;;;;6.13;3.85;;;1.50;99.90;;;;;;4969853;28;20133;-45
2022/04/11 01:38:34;;;;;;;6.75;3.47;;;1.50;99.90;;;;;;4965434;28;20054;-44
2022/04/11 01:40:59;;;;;;;8.32;4.38;;;1.50;99.90;;;;;;4971529;28;20052;-45
2022/04/11 01:43:25;;;;;;;5.57;3.53;;;1.50;99.90;;;;;;4946463;28;20141;-45
2022/04/11 01:45:52;;;;;;;6.85;3.40;;;1.40;99.90;;;;;;4975641;28;20460;-43
2022/04/11 01:48:18;;;;;;;5.57;3.80;;;1.40;99.90;;;;;;4954673;28;20058;-44
2022/04/11 01:50:44;;;;;;;5.60;3.40;;;1.40;99.90;;;;;;4964532;28;20043;-43
2022/04/11 01:53:12;;;;;;;4.45;3.38;;;1.40;99.90;;;;;;4968575;28;20457;-43
2022/04/11 01:55:38;;;;;;;5.70;4.20;;;1.40;99.90;;;;;;4948520;28;20455;-44
2022/04/11 01:58:06;;;;;;;7.55;4.45;;;1.30;99.90;;;;;;4944641;28;20467;-45
2022/04/11 02:00:32;;;;;;;10.80;5.53;;;1.30;99.90;;;;;;4969846;28;20436;-44
2022/04/11 02:02:59;;;;;;;10.15;5.82;;;1.30;99.90;;;;;;4967334;28;20050;-44
2022/04/11 02:05:26;;;;;;;11.55;6.18;;;1.30;99.90;;;;;;4981117;28;20065;-43
2022/04/11 02:07:52;;;;;;;8.90;5.63;;;1.30;99.90;;;;;;4978649;28;20054;-43
2022/04/11 02:10:18;;;;;;;9.82;5.72;;;1.30;99.90;;;;;;4962669;28;20108;-43
2022/04/11 02:12:44;;;;;;;7.80;5.10;;;1.30;99.90;;;;;;4974444;28;20555;-44
2022/04/11 02:15:11;;;;;;;7.80;5.03;;;1.30;99.90;;;;;;4946058;28;20045;-44
2022/04/11 02:17:36;;;;;;;11.27;5.05;;;1.30;99.90;;;;;;4974145;28;20472;-45
2022/04/11 02:20:03;;;;;;;8.48;4.68;;;1.40;99.90;;;;;;4964202;28;20145;-49
2022/04/11 02:22:30;;;;;;;7.45;4.47;;;1.40;99.90;;;;;;4977196;28;20047;-52
2022/04/11 02:24:55;;;;;;;9.73;5.40;;;1.40;99.90;;;;;;4965404;28;20077;-45
2022/04/11 02:27:21;;;;;;;9.35;5.30;;;1.40;99.90;;;;;;4964723;28;20374;-44
2022/04/11 02:29:56;;;;;;;10.85;5.90;;;1.30;99.90;;;;;;4962493;28;20194;-44
2022/04/11 02:32:21;;;;;;;9.32;5.22;;;1.40;99.90;;;;;;4960467;28;20363;-44
2022/04/11 02:34:47;;;;;;;9.52;5.60;;;1.40;99.90;;;;;;4943659;28;20435;-44
2022/04/11 02:37:13;;;;;;;8.65;4.63;;;1.40;99.90;;;;;;4967513;28;20050;-44
2022/04/11 02:39:39;;;;;;;9.77;5.15;;;1.30;99.90;;;;;;4962504;28;20051;-46
2022/04/11 02:42:05;;;;;;;9.68;5.38;;;1.30;99.90;;;;;;4963678;28;20046;-43
2022/04/11 02:44:32;;;;;;;10.80;5.97;;;1.30;99.90;;;;;;4953711;28;20110;-44
2022/04/11 02:46:57;;;;;;;10.02;4.90;;;1.30;99.90;;;;;;4962071;28;20085;-44
2022/04/11 02:49:23;;;;;;;9.38;4.50;;;1.30;99.90;;;;;;4959917;28;20141;-43
2022/04/11 02:51:49;;;;;;;7.25;4.70;;;1.30;99.90;;;;;;4949689;28;20066;-45
2022/04/11 02:54:24;;;;;;;6.43;4.68;;;1.20;99.90;;;;;;4966959;28;20470;-44
2022/04/11 02:56:49;;;;;;;8.68;4.63;;;1.20;99.90;;;;;;4968554;28;20055;-45
2022/04/11 02:59:15;;;;;;;7.32;4.63;;;1.20;99.90;;;;;;4963926;28;20061;-44
2022/04/11 03:01:40;;;;;;;7.72;5.53;;;1.20;99.90;;;;;;4966598;28;20051;-44
2022/04/11 03:04:11;;;;;;;5.97;4.90;;;1.20;99.90;;;;;;4970741;28;20364;-45
2022/04/11 03:06:37;;;;;;;7.07;4.40;;;1.10;99.90;;;;;;4943889;28;20560;-44
2022/04/11 03:09:03;;;;;;;8.18;5.30;;;1.10;99.90;;;;;;4935316;28;20425;-46
2022/04/11 03:11:28;;;;;;;8.10;4.50;;;1.10;99.90;;;;;;4961599;28;20065;-42
2022/04/11 03:13:54;;;;;;;7.40;4.72;;;1.10;99.90;;;;;;4972793;28;20238;-43
2022/04/11 03:16:20;;;;;;;13.98;6.75;;;1.10;99.90;;;;;;4961522;28;20073;-45
2022/04/11 03:18:45;;;;;;;6.65;5.22;;;1.20;99.90;;;;;;4963744;28;20114;-44
2022/04/11 03:21:12;;;;;;;7.60;4.82;;;1.20;99.90;;;;;;4967888;28;20054;-44
2022/04/11 03:23:38;;;;;;;6.55;4.70;;;1.20;99.90;;;;;;4978647;28;20055;-45
2022/04/11 03:26:04;;;;;;;7.18;4.47;;;1.30;99.90;;;;;;4944164;28;20886;-44
2022/04/11 03:28:29;;;;;;;8.05;4.90;;;1.30;99.90;;;;;;4966672;28;20441;-43
2022/04/11 03:30:55;;;;;;;5.70;4.43;;;1.30;99.90;;;;;;4968559;28;20055;-44
2022/04/11 03:33:21;;;;;;;8.27;4.65;;;1.30;99.90;;;;;;4963738;28;20101;-44
2022/04/11 03:35:46;;;;;;;9.85;4.57;;;1.40;99.90;;;;;;4973720;28;20054;-44
2022/04/11 03:38:12;;;;;;;7.50;4.63;;;1.40;99.90;;;;;;4972529;28;20061;-44
2022/04/11 03:40:44;;;;;;;7.80;4.70;;;1.40;99.90;;;;;;4965209;28;20121;-43
2022/04/11 03:43:10;;;;;;;6.85;5.00;;;1.40;99.90;;;;;;4966816;28;20055;-45
2022/04/11 03:45:36;;;;;;;9.35;4.93;;;1.40;99.90;;;;;;4979254;28;20481;-44
2022/04/11 03:48:03;;;;;;;5.43;4.30;;;1.50;99.90;;;;;;4947123;28;20047;-44
2022/04/11 03:50:32;;;;;;;5.30;4.10;;;1.50;99.90;;;;;;4965671;28;20070;-44
2022/04/11 03:52:57;;;;;;;6.05;4.15;;;1.60;99.90;;;;;;4947745;28;20054;-44
2022/04/11 03:55:24;;;;;;;8.13;4.10;;;1.60;99.90;;;;;;4954759;28;20082;-44
2022/04/11 03:57:50;;;;;;;8.40;4.78;;;1.60;99.90;;;;;;4964339;28;20525;-44
2022/04/11 04:00:16;;;;;;;6.75;4.20;;;1.60;99.90;;;;;;4964888;28;20518;-43
2022/04/11 04:02:45;;;;;;;6.78;4.10;;;1.70;99.90;;;;;;4971848;28;20544;-44
2022/04/11 04:05:11;;;;;;;5.95;3.85;;;1.70;99.90;;;;;;4971819;28;20389;-44
2022/04/11 04:07:38;;;;;;;8.13;3.60;;;1.70;99.90;;;;;;4965482;28;20078;-44
2022/04/11 04:10:05;;;;;;;7.47;3.42;;;1.80;99.90;;;;;;4947146;28;20408;-45
2022/04/11 04:12:31;;;;;;;6.30;3.80;;;1.90;99.90;;;;;;4964269;28;20062;-45
2022/04/11 04:14:57;;;;;;;5.70;3.20;;;1.90;99.90;;;;;;4964508;28;20043;-43
2022/04/11 04:17:22;;;;;;;6.22;3.20;;;1.90;99.90;;;;;;4963665;28;20085;-43
2022/04/11 04:19:48;;;;;;;5.43;3.58;;;1.90;99.90;;;;;;4971010;28;20113;-44
2022/04/11 04:22:15;;;;;;;4.03;3.20;;;1.90;99.90;;;;;;4973330;28;20042;-45
2022/04/11 04:24:40;;;;;;;7.38;4.13;;;1.90;99.90;;;;;;4970390;28;20061;-45
2022/04/11 04:27:07;;;;;;;8.38;4.18;;;2.00;99.90;;;;;;4975114;28;20058;-44
2022/04/11 04:29:36;;;;;;;7.15;4.00;;;2.00;99.90;;;;;;4968150;28;20087;-43
2022/04/11 04:32:02;;;;;;;7.30;4.25;;;2.10;99.90;;;;;;4953817;28;20050;-43
2022/04/11 04:34:31;;;;;;;6.88;4.03;;;2.10;99.90;;;;;;4968140;28;20053;-45
2022/04/11 04:36:58;;;;;;;5.30;3.42;;;2.10;99.90;;;;;;4965534;28;20491;-44
2022/04/11 04:39:24;;;;;;;6.28;3.20;;;2.00;99.90;;;;;;4943593;29;20533;-45
2022/04/11 04:41:50;;;;;;;5.00;3.10;;;2.00;99.90;;;;;;4944445;28;20498;-45
2022/04/11 04:44:16;;;;;;;6.18;3.30;;;2.00;99.90;;;;;;4954782;28;20047;-43
2022/04/11 04:46:41;;;;;;;7.38;3.40;;;2.00;99.90;;;;;;4960601;28;20046;-44
2022/04/11 04:49:07;;;;;;;5.72;4.20;;;2.10;99.90;;;;;;4949183;28;20113;-45
2022/04/11 04:51:33;;;;;;;4.05;3.22;;;2.10;99.90;;;;;;4949079;28;20055;-43
2022/04/11 04:53:59;;;;;;;6.00;3.38;;;2.10;99.90;;;;;;4948831;28;20066;-43
2022/04/11 04:56:25;;;;;;;7.78;3.78;;;2.20;99.90;;;;;;4949229;28;20055;-45
2022/04/11 04:58:51;;;;;;;9.98;3.60;;;2.20;99.90;;;;;;4944172;28;20055;-45
2022/04/11 05:01:17;;;;;;;4.45;3.03;;;2.20;99.90;;;;;;4943709;28;20055;-44
2022/04/11 05:03:43;;;;;;;5.40;3.70;;;2.20;99.90;;;;;;4943986;28;20050;-44
2022/04/11 05:06:09;;;;;;;5.80;3.75;;;2.30;99.90;;;;;;4956122;28;20111;-44
2022/04/11 05:08:35;;;;;;;6.80;3.35;;;2.30;99.90;;;;;;4945447;28;20051;-43
2022/04/11 05:11:01;;;;;;;7.22;3.30;;;2.30;99.90;;;;;;4942671;28;20168;-44
2022/04/11 05:13:27;;;;;;;9.68;3.45;;;2.40;99.90;;;;;;4943969;28;20106;-45
2022/04/11 05:15:52;;;;;;;5.22;3.75;;;2.40;99.90;;;;;;4945814;28;20050;-43
2022/04/11 05:18:19;;;;;;;6.13;3.10;;;2.40;99.90;;;;;;4954790;28;20070;-44
2022/04/11 05:20:45;;;;;;;5.20;3.58;;;2.50;99.90;;;;;;4947065;28;20055;-44
2022/04/11 05:23:11;;;;;;;6.80;2.95;;;2.50;99.90;;;;;;4947922;28;20062;-45
2022/04/11 05:25:37;;;;;;;5.15;3.25;;;2.50;99.90;;;;;;4945794;28;20447;-44
2022/04/11 05:28:04;;;;;;;8.98;3.63;;;2.60;99.90;;;;;;4946331;28;20383;-44
2022/04/11 05:30:35;;;;;;;4.05;3.22;;;2.60;99.90;;;;;;4949483;28;20580;-43
2022/04/11 05:33:01;;;;;;;5.75;3.28;;;2.60;99.90;;;;;;4953042;28;20472;-43
2022/04/11 05:35:27;;;;;;;4.35;2.80;;;2.60;99.90;;;;;;4949578;28;20553;-45
2022/04/11 05:37:53;;;;;;;5.93;3.70;;;2.60;99.90;;;;;;4958010;28;20078;-45
2022/04/11 05:40:18;;;;;;;7.05;3.85;;;2.70;99.90;;;;;;4957484;28;20063;-43
2022/04/11 05:42:44;;;;;;;7.47;3.47;;;2.70;99.90;;;;;;4952741;28;20055;-44
2022/04/11 05:45:10;;;;;;;6.00;2.90;;;2.70;99.90;;;;;;4945622;29;20515;-44
2022/04/11 05:47:51;;;;;;;5.00;3.13;;;2.80;99.90;;;;;;4952717;28;20417;-44
2022/04/11 05:50:16;;;;;;;6.88;3.47;;;2.80;99.90;;;;;;4945634;28;20477;-45
2022/04/11 05:52:42;;;;;;;7.63;3.25;;;2.90;99.90;;;;;;4952713;28;20558;-44
2022/04/11 05:55:09;;;;;;;11.52;3.85;;;2.80;99.90;;;;;;4951908;28;20050;-43
2022/04/11 05:57:35;;;;;;;7.28;3.08;;;2.80;99.90;;;;;;4955577;28;20346;-44
2022/04/11 06:00:00;;;;;;;6.97;3.10;;;2.80;99.90;;;;;;4943755;28;20502;-46
2022/04/11 06:02:27;;;;;;;6.45;3.20;;;2.90;99.90;;;;;;4947300;28;20066;-45
2022/04/11 06:05:02;;;;;;;5.60;3.58;;;2.90;99.90;;;;;;4954751;28;20050;-44
2022/04/11 06:07:32;;;;;;;7.00;3.72;;;2.90;99.90;;;;;;4954016;28;20089;-44
2022/04/11 06:10:01;;;;;;;9.05;4.60;;;2.90;99.90;;;;;;4960428;28;20129;-44
2022/04/11 06:12:29;;;;;;;6.03;3.83;;;3.00;99.90;;;;;;4949857;28;20051;-42
2022/04/11 06:14:55;;;;;;;6.40;4.07;;;3.00;99.90;;;;;;4947578;28;20126;-45
2022/04/11 06:17:25;;;;;;;6.10;3.67;;;3.10;99.90;;;;;;4934077;28;20061;-43
2022/04/11 06:19:55;;;;;;;7.05;3.78;;;3.10;99.90;;;;;;4946598;28;20067;-44
2022/04/11 06:22:22;;;;;;;9.60;4.75;;;3.20;99.90;;;;;;4945595;28;20486;-43
2022/04/11 06:24:49;;;;;;;9.32;3.97;;;3.30;99.90;;;;;;4950632;28;20420;-44
2022/04/11 06:27:15;;;;;;;8.20;3.72;;;3.40;99.90;;;;;;4941565;28;20533;-43
2022/04/11 06:29:46;;;;;;;6.57;3.83;;;3.50;99.90;;;;;;4944687;28;20160;-44
2022/04/11 06:32:12;;;;;;;6.93;4.15;;;3.60;99.90;;;;;;4939829;28;20077;-44
2022/04/11 06:34:38;;;;;;;5.63;3.72;;;3.70;99.90;;;;;;4941499;28;20474;-44
2022/04/11 06:37:04;;;;;;;7.07;4.07;;;3.70;99.90;;;;;;4941824;28;20042;-44
2022/04/11 06:39:30;;;;;;;4.93;3.63;;;3.80;99.90;;;;;;4942972;28;20055;-47
2022/04/11 06:42:00;;;;;;;6.38;4.07;;;3.90;99.90;;;;;;4944854;28;20050;-44
2022/04/11 06:44:25;;;;;;;6.80;3.75;;;4.00;99.90;;;;;;4945428;28;20051;-44
2022/04/11 06:46:51;;;;;;;7.07;3.97;;;4.00;99.90;;;;;;4948785;28;20039;-44
2022/04/11 06:49:17;;;;;;;7.43;4.47;;;4.10;99.90;;;;;;4946596;28;20039;-45
2022/04/11 06:51:46;;;;;;;5.25;3.75;;;4.20;99.90;;;;;;4949837;28;20457;-51
2022/04/11 06:54:11;;;;;;;6.57;4.40;;;4.20;99.90;;;;;;4944396;28;20051;-44
2022/04/11 06:56:37;;;;;;;6.95;3.90;;;4.30;99.90;;;;;;4945228;28;20054;-45
2022/04/11 06:59:06;;;;;;;9.10;4.57;;;4.40;99.90;;;;;;4943689;28;20047;-44
2022/04/11 07:01:37;;;;;;;8.48;4.28;;;4.50;99.90;;;;;;4951624;28;20051;-44
2022/04/11 07:04:03;;;;;;;14.23;5.10;;;4.60;99.90;;;;;;4958081;28;20398;-43
2022/04/11 07:06:29;;;;;;;8.18;4.15;;;4.60;99.90;;;;;;4946276;28;20385;-44
2022/04/11 07:08:54;;;;;;;7.43;4.13;;;4.70;99.90;;;;;;4952312;28;20579;-44
2022/04/11 07:11:25;;;;;;;9.10;4.18;;;4.70;99.90;;;;;;4957810;28;20047;-44
2022/04/11 07:13:51;;;;;;;7.70;4.00;;;4.90;99.90;;;;;;4952013;28;20164;-44
2022/04/11 07:16:23;;;;;;;6.32;4.05;;;4.90;99.90;;;;;;4948480;28;20667;-43
2022/04/11 07:18:51;;;;;;;11.32;7.35;;;5.00;99.90;;;;;;4947471;28;20043;-44
2022/04/11 07:21:18;;;;;;;8.90;5.63;;;5.10;99.90;;;;;;4951668;28;20055;-53
2022/04/11 07:23:44;;;;;;;8.32;4.80;;;5.20;99.90;;;;;;4956921;28;20055;-44
2022/04/11 07:26:10;;;;;;;11.43;4.55;;;5.30;99.90;;;;;;4949602;28;20146;-45
2022/04/11 07:28:36;;;;;;;7.57;5.00;;;5.30;99.90;;;;;;4950709;28;20405;-44
2022/04/11 07:31:07;;;;;;;8.82;5.05;;;5.40;99.90;;;;;;4963737;28;20042;-44
2022/04/11 07:33:33;;;;;;;10.73;6.20;;;5.40;99.90;;;;;;4950855;28;20484;-44
2022/04/11 07:35:58;;;;;;;5.70;3.85;;;5.50;99.90;;;;;;4957376;28;20043;-44
2022/04/11 07:38:24;;;;;;;6.38;4.50;;;5.60;99.90;;;;;;4955822;28;20538;-44
2022/04/11 07:41:18;;;;;;;7.63;4.00;;;5.70;99.90;;;;;;4968975;28;20488;-45
2022/04/11 07:43:43;;;;;;;7.55;4.68;;;5.90;99.90;;;;;;4967910;28;23044;-46
2022/04/11 07:46:09;;;;;;;6.97;5.05;;;5.90;99.90;;;;;;4968164;28;20097;-44
2022/04/11 07:48:35;;;;;;;5.47;4.72;;;6.10;99.90;;;;;;4969555;28;20100;-45
2022/04/11 07:51:00;;;;;;;6.78;5.93;;;6.20;99.90;;;;;;4971765;28;20062;-44
2022/04/11 07:53:27;;;;;;;7.70;4.95;;;6.30;99.90;;;;;;4967930;28;20054;-45
2022/04/11 07:55:53;;;;;;;8.07;4.82;;;6.50;99.90;;;;;;4968740;28;20047;-44
2022/04/11 07:58:20;;;;;;;12.65;5.65;;;6.60;99.90;;;;;;4951829;28;20410;-44
2022/04/11 08:00:52;;;;;;;7.00;4.32;;;6.80;99.90;;;;;;4972618;28;20140;-48
2022/04/11 08:03:21;;;;;;;9.23;4.78;;;6.90;99.90;;;;;;4948914;28;20153;-45
2022/04/11 08:05:51;;;;;;;10.07;4.70;;;7.00;99.90;;;;;;4972353;28;20061;-46
2022/04/11 08:08:48;;;;;;;8.50;4.05;;;7.30;99.90;;;;;;4975075;28;20118;-45
2022/04/11 08:11:18;;;;;;;7.57;4.63;;;7.60;99.90;;;;;;4974644;28;20058;-45
2022/04/11 08:13:48;;;;;;;8.30;4.50;;;7.70;99.90;;;;;;4973762;28;20506;-44
2022/04/11 08:16:13;;;;;;;9.38;4.45;;;8.10;99.90;;;;;;4956868;28;20054;-44
2022/04/11 08:18:39;;;;;;;9.77;4.85;;;8.20;99.90;;;;;;4960474;28;20502;-45
2022/04/11 08:21:07;;;;;;;11.43;4.22;;;8.50;99.90;;;;;;4980224;28;20077;-45
2022/04/11 08:23:32;;;;;;;7.55;4.40;;;8.70;99.90;;;;;;4953348;28;20062;-45
2022/04/11 08:25:58;;;;;;;7.03;4.00;;;8.90;99.90;;;;;;4972006;28;20047;-43
2022/04/11 08:28:24;;;;;;;7.72;4.28;;;9.10;99.90;;;;;;4964500;28;20464;-45
2022/04/11 08:30:50;;;;;;;10.27;4.15;;;9.20;99.90;;;;;;4964235;28;20047;-43
2022/04/11 08:33:16;;;;;;;8.27;5.15;;;9.30;99.90;;;;;;4965134;28;20090;-45
2022/04/11 08:35:41;;;;;;;4.65;3.80;;;9.50;99.90;;;;;;4952168;28;20054;-47
2022/04/11 08:38:07;;;;;;;8.90;4.03;;;9.60;99.90;;;;;;4968829;28;20046;-45
2022/04/11 08:40:33;;;;;;;9.52;4.63;;;9.70;99.90;;;;;;4966113;28;20415;-45
2022/04/11 08:42:59;;;;;;;8.05;4.40;;;9.80;99.90;;;;;;4963939;28;20466;-47
2022/04/11 08:45:27;;;;;;;7.65;4.07;;;9.90;99.90;;;;;;4964681;28;20105;-44
2022/04/11 08:47:59;;;;;;;7.80;3.90;;;9.80;99.90;;;;;;4964970;28;20047;-43
2022/04/11 08:50:26;;;;;;;7.20;4.35;;;9.90;99.90;;;;;;4947001;28;20102;-45
2022/04/11 08:52:57;;;;;;;7.28;4.38;;;10.00;99.90;;;;;;4964817;28;20055;-45
2022/04/11 08:55:23;;;;;;;8.70;4.13;;;10.10;99.90;;;;;;4964119;28;20491;-44
2022/04/11 08:57:49;;;;;;;8.10;4.13;;;10.20;99.90;;;;;;4964380;28;20050;-45
2022/04/11 09:00:20;;;;;;;6.40;3.95;;;10.20;99.90;;;;;;4964914;28;20043;-45
2022/04/11 09:02:46;;;;;;;6.95;3.58;;;10.40;99.90;;;;;;4972851;28;20058;-44
2022/04/11 09:05:19;;;;;;;8.20;3.88;;;10.40;99.90;;;;;;4975477;28;20055;-46
2022/04/11 09:07:59;;;;;;;4.93;3.25;;;10.50;99.90;;;;;;4955432;28;20928;-46
2022/04/11 09:10:25;;;;;;;6.03;3.10;;;10.60;99.90;;;;;;4945575;28;20062;-45
2022/04/11 09:12:54;;;;;;;5.30;3.15;;;10.60;99.90;;;;;;4977424;28;20050;-45
2022/04/11 09:15:23;;;;;;;5.95;3.45;;;10.60;99.90;;;;;;4975931;28;20047;-46
2022/04/11 09:17:49;;;;;;;5.13;3.22;;;10.60;99.90;;;;;;4937922;28;20054;-44
2022/04/11 09:20:24;;;;;;;9.52;3.50;;;10.80;99.90;;;;;;4977321;28;20058;-45
2022/04/11 09:22:50;;;;;;;7.22;3.30;;;10.90;99.90;;;;;;4970558;28;20521;-46
2022/04/11 09:25:17;;;;;;;4.20;3.17;;;11.00;99.90;;;;;;4976730;28;20061;-44
2022/04/11 09:27:44;;;;;;;5.85;2.80;;;10.90;99.90;;;;;;4969772;28;20086;-45
2022/04/11 09:30:27;;;;;;;5.40;2.78;;;11.00;99.90;;;;;;4952713;28;20186;-46
2022/04/11 09:33:08;;;;;;;8.87;3.20;;;11.00;99.90;;;;;;4956836;28;20050;-46
2022/04/11 09:35:35;;;;;;;5.57;3.30;;;11.10;99.90;;;;;;4975832;28;20064;-43
2022/04/11 09:38:16;;;;;;;5.15;3.03;;;11.20;99.90;;;;;;4973582;28;20090;-46
2022/04/11 09:40:48;;;;;;;5.85;2.80;;;11.30;99.90;;;;;;4973034;28;20078;-44
2022/04/11 09:43:16;;;;;;;4.30;2.40;;;11.40;99.90;;;;;;4954926;28;20237;-46
2022/04/11 09:45:46;;;;;;;5.95;2.85;;;11.40;99.90;;;;;;4942934;28;20111;-45
2022/04/11 09:48:35;;;;;;;5.88;2.65;;;11.50;99.90;;;;;;4957675;28;20113;-45
2022/04/11 09:51:07;;;;;;;4.55;2.30;;;11.60;99.90;;;;;;4955881;28;20519;-45
2022/04/11 09:53:35;;;;;;;5.35;2.63;;;11.60;99.90;;;;;;4958960;28;20446;-48
2022/04/11 09:56:10;;;;;;;5.05;2.75;;;11.70;99.90;;;;;;4958225;28;20464;-46
2022/04/11 09:58:37;;;;;;;4.88;2.53;;;11.80;99.90;;;;;;4955898;28;20043;-44
2022/04/11 10:01:05;;;;;;;5.82;2.47;;;11.90;99.90;;;;;;4959989;28;20046;-46
2022/04/11 10:03:31;;;;;;;6.45;2.55;;;12.00;99.90;;;;;;4938287;28;20596;-46
2022/04/11 10:05:58;;;;;;;5.05;2.47;;;12.00;99.90;;;;;;4957100;28;20111;-46
2022/04/11 10:08:25;;;;;;;6.38;2.95;;;12.00;99.90;;;;;;4959465;28;20640;-46
2022/04/11 10:10:53;;;;;;;4.55;2.30;;;12.10;99.90;;;;;;4956136;28;20063;-45
2022/04/11 10:13:18;;;;;;;4.00;2.33;;;12.10;99.70;;;;;;4957795;28;20445;-44
2022/04/11 10:15:46;;;;;;;6.38;2.67;;;12.10;99.90;;;;;;4962163;28;20051;-45
2022/04/11 10:18:30;;;;;;;4.50;2.60;;;12.10;99.50;;;;;;4960135;28;20085;-46
2022/04/11 10:21:03;;;;;;;7.80;3.08;;;12.10;98.30;;;;;;4966560;28;20133;-45
2022/04/11 10:23:37;;;;;;;6.25;3.30;;;12.20;98.80;;;;;;4967701;28;20050;-45
2022/04/11 10:26:17;;;;;;;4.63;3.10;;;12.30;99.70;;;;;;4970069;28;20051;-45
2022/04/11 10:28:47;;;;;;;5.63;3.10;;;12.30;97.80;;;;;;4975121;28;20121;-47
2022/04/11 10:31:15;;;;;;;8.50;3.65;;;12.20;98.10;;;;;;4968008;28;20058;-46
2022/04/11 10:33:57;;;;;;;5.75;3.55;;;12.30;98.20;;;;;;4960896;28;20061;-46
2022/04/11 10:36:36;;;;;;;6.85;3.72;;;12.40;97.30;;;;;;4948345;28;20563;-46
2022/04/11 10:39:17;;;;;;;6.70;3.05;;;12.30;97.90;;;;;;4959746;28;20105;-45
2022/04/11 10:41:57;;;;;;;6.90;2.70;;;12.40;96.70;;;;;;4963727;28;20105;-45
2022/04/11 10:44:49;;;;;;;5.15;3.92;;;12.40;96.50;;;;;;4968942;28;20123;-47
2022/04/11 10:47:15;;;;;;;4.65;2.90;;;12.40;96.30;;;;;;4949929;28;20426;-45
2022/04/11 10:49:50;;;;;;;6.82;3.40;;;12.50;96.20;;;;;;4969234;28;20153;-46
2022/04/11 10:52:31;;;;;;;7.57;3.40;;;12.50;96.20;;;;;;4960113;28;20486;-47
2022/04/11 10:55:03;;;;;;;8.95;3.88;;;12.60;96.80;;;;;;4943981;28;20514;-46
2022/04/11 10:57:33;;;;;;;5.90;4.45;;;12.70;96.00;;;;;;4946814;28;20054;-45
2022/04/11 11:00:20;;;;;;;8.95;4.03;;;12.80;96.40;;;;;;4965089;28;20137;-46
2022/04/11 11:03:01;;;;;;;6.80;4.10;;;12.90;94.70;;;;;;4963455;28;20058;-45
2022/04/11 11:05:38;;;;;;;9.73;5.00;;;12.90;96.00;;;;;;4968342;28;20133;-45
2022/04/11 11:08:09;;;;;;;6.80;5.20;;;12.90;96.40;;;;;;4960980;28;20050;-46
2022/04/11 11:10:45;;;;;;;7.00;4.50;;;13.00;96.50;;;;;;4959963;28;20058;-46
2022/04/11 11:13:41;;;;;;;7.50;5.32;;;13.10;95.10;;;;;;4958095;28;20058;-45
2022/04/11 11:16:06;;;;;;;9.48;5.13;;;13.20;95.00;;;;;;4959969;28;20050;-47
2022/04/11 11:18:51;;;;;;;10.07;6.50;;;13.20;95.60;;;;;;4963630;28;20061;-46
2022/04/11 11:21:28;;;;;;;10.15;6.65;;;13.20;94.20;;;;;;4962238;28;20417;-46
2022/04/11 11:24:12;;;;;;;8.25;5.97;;;13.30;94.90;;;;;;4975668;28;20058;-46
2022/04/11 11:26:58;;;;;;;9.23;6.07;;;13.20;93.60;;;;;;4957174;28;20120;-48
2022/04/11 11:29:25;;;;;;;10.80;6.70;;;13.20;94.30;;;;;;4971609;28;20047;-45
2022/04/11 11:31:53;;;;;;;9.88;7.43;;;13.30;94.80;;;;;;4967286;28;20050;-48
2022/04/11 11:34:25;;;;;;;9.75;7.50;;;13.30;94.60;;;;;;4964875;28;20062;-46
2022/04/11 11:36:53;;;;;;;10.63;8.23;;;13.30;94.70;;;;;;4970876;28;20042;-47
2022/04/11 11:39:23;;;;;;;11.95;8.13;;;13.30;94.40;;;;;;4973579;28;20129;-46
2022/04/11 11:41:54;;;;;;;10.05;8.30;;;13.30;94.30;;;;;;4974767;28;20053;-47
2022/04/11 11:44:20;;;;;;;12.52;10.18;;;13.30;94.40;;;;;;4975712;28;20303;-45
2022/04/11 11:47:00;;;;;;;9.57;7.30;;;13.40;94.90;;;;;;4969023;28;20055;-49
2022/04/11 11:49:42;;;;;;;14.82;9.45;;;13.40;95.10;;;;;;4972598;28;20062;-45
2022/04/11 11:52:15;;;;;;;9.13;8.00;;;13.50;94.30;;;;;;4959947;28;20057;-47
2022/04/11 11:54:43;;;;;;;15.57;9.50;;;13.50;94.50;;;;;;4954279;28;20112;-44
2022/04/11 11:57:26;;;;;;;10.52;8.88;;;13.50;95.10;;;;;;4971901;28;20129;-47
2022/04/11 11:59:53;;;;;;;;;;;13.50;95.00;;;;;;4975239;28;20472;-48
2022/04/11 12:05:24;;;;;;;13.45;11.10;;;13.50;94.20;;;;;;4971824;28;20054;-45
2022/04/11 12:08:13;;;;;;;15.55;12.52;;;13.50;94.60;;;;;;4974768;28;20484;-45
2022/04/11 12:10:47;;;;;;;13.38;12.05;;;13.70;95.90;;;;;;4962543;28;20098;-46
2022/04/11 12:13:22;;;;;;;12.70;11.38;;;13.80;96.00;;;;;;4964019;28;20137;-46
2022/04/11 12:15:48;;;;;;;13.20;11.48;;;13.80;93.40;;;;;;4969072;28;20097;-45
2022/04/11 12:18:15;;;;;;;12.50;11.30;;;13.80;94.00;;;;;;4938649;28;20470;-46
2022/04/11 12:20:43;;;;;;;9.60;8.60;;;13.80;96.20;;;;;;4974842;28;20043;-46
2022/04/11 12:23:11;;;;;;;11.50;8.98;;;13.90;95.40;;;;;;4972394;28;20069;-47
2022/04/11 12:25:40;;;;;;;10.13;8.93;;;14.00;94.80;;;;;;4975304;28;20140;-49
2022/04/11 12:28:22;;;;;;;10.30;9.10;;;13.90;94.30;;;;;;4958791;28;20050;-45
2022/04/11 12:31:03;;;;;;;11.50;9.00;;;13.90;93.90;;;;;;4948532;28;20055;-46
2022/04/11 12:33:35;;;;;;;12.23;9.65;;;13.80;93.50;;;;;;4948165;28;20065;-46
2022/04/11 12:36:05;;;;;;;14.70;10.50;;;13.80;93.50;;;;;;4961962;28;20394;-46
2022/04/11 12:38:51;;;;;;;11.45;9.23;;;13.80;97.00;;;;;;4977577;28;20455;-46
2022/04/11 12:41:27;;;;;;;10.32;8.82;;;13.90;95.10;;;;;;4977743;28;20152;-46
2022/04/11 12:44:19;;;;;;;10.90;8.88;;;13.90;93.90;;;;;;4972838;28;20065;-46
2022/04/11 12:47:03;;;;;;;11.20;9.27;;;13.90;94.00;;;;;;4969337;28;20133;-46
2022/04/11 12:49:43;;;;;;;;;;;13.90;94.40;;;;;;4964513;28;20112;-47
2022/04/11 12:52:09;;;;;;;10.60;8.73;;;14.00;94.10;;;;;;4963150;28;19926;-47
2022/04/11 12:54:41;;;;;;;12.07;8.85;;;14.00;94.20;;;;;;4964141;28;20054;-46
2022/04/11 12:57:17;;;;;;;12.35;9.63;;;13.90;93.90;;;;;;4972438;28;20537;-46
2022/04/11 12:59:43;;;;;;;12.10;8.80;;;13.90;93.60;;;;;;4966255;28;20084;-45
2022/04/11 13:02:16;;;;;;;11.75;8.73;;;13.80;93.50;;;;;;4965936;28;20774;-47
2022/04/11 13:04:53;;;;;;;10.48;8.55;;;13.80;94.00;;;;;;4965274;28;20129;-49